Time;durP1;ratioP1;P1;durP2;ratioP2;P2;SDS_P1;SDS_P2;PMS_P1;PMS_P2;Temp;Humidity;BMP_temperature;BMP_pressure;BME280_temperature;BME280_humidity;BME280_pressure;Samples;Min_cycle;Max_cycle;Signal;HPM_P1;HPM_P2
2022/10/24 00:00:22;;;;;;;12.18;2.30;;;;;;;14.59;97.39;100403.75;6220381;23;20518;-85
2022/10/24 00:02:49;;;;;;;10.88;2.38;;;;;;;14.63;96.82;100402.31;6220186;23;20017;-86
2022/10/24 00:05:15;;;;;;;4.18;2.20;;;;;;;14.68;96.52;100398.97;6193363;23;20020;-85
2022/10/24 00:07:42;;;;;;;6.35;2.72;;;;;;;14.70;97.02;100395.81;6220588;23;20088;-86
2022/10/24 00:10:12;;;;;;;7.55;2.40;;;;;;;14.72;96.57;100400.69;6220776;23;20017;-88
2022/10/24 00:12:39;;;;;;;5.57;2.30;;;;;;;14.73;96.62;100389.50;6220647;23;20048;-85
2022/10/24 00:15:06;;;;;;;4.90;2.05;;;;;;;14.71;96.76;100386.56;6220786;23;20084;-86
2022/10/24 00:17:33;;;;;;;7.90;2.38;;;;;;;14.71;96.46;100385.81;6220196;23;20506;-86
2022/10/24 00:20:00;;;;;;;3.45;2.17;;;;;;;14.65;96.62;100385.78;6221096;23;20475;-85
2022/10/24 00:22:26;;;;;;;7.90;2.58;;;;;;;14.64;96.72;100386.97;6220579;23;20044;-86
2022/10/24 00:24:53;;;;;;;7.53;2.53;;;;;;;14.62;96.67;100386.72;6220804;23;20104;-86
2022/10/24 00:27:19;;;;;;;6.57;2.17;;;;;;;14.59;96.48;100383.06;6220351;23;20088;-86
2022/10/24 00:29:46;;;;;;;9.32;2.53;;;;;;;14.58;96.55;100378.16;6220607;23;20074;-85
2022/10/24 00:32:13;;;;;;;5.93;2.40;;;;;;;14.58;96.30;100376.22;6221262;23;20080;-85
2022/10/24 00:34:40;;;;;;;3.88;2.28;;;;;;;14.58;96.49;100373.53;6221186;23;20095;-84
2022/10/24 00:37:06;;;;;;;5.88;2.60;;;;;;;14.55;96.81;100373.75;6194104;23;20021;-85
2022/10/24 00:39:33;;;;;;;6.63;2.30;;;;;;;14.51;96.50;100365.94;6220292;23;20480;-85
2022/10/24 00:41:59;;;;;;;6.72;2.22;;;;;;;14.50;96.97;100375.19;6220536;23;20017;-85
2022/10/24 00:44:30;;;;;;;7.47;2.40;;;;;;;14.50;96.58;100363.72;6220268;23;20017;-85
2022/10/24 00:47:11;;;;;;;5.22;2.47;;;;;;;14.46;96.35;100365.88;6219553;23;20470;-86
2022/10/24 00:49:49;;;;;;;6.90;2.38;;;;;;;14.43;96.68;100366.84;6220412;23;20088;-85
2022/10/24 00:52:25;;;;;;;7.75;2.35;;;;;;;14.42;96.50;100362.69;6218824;23;20096;-85
2022/10/24 00:54:54;;;;;;;9.15;2.38;;;;;;;14.43;96.26;100353.44;6218822;23;20100;-85
2022/10/24 00:57:32;;;;;;;5.13;2.45;;;;;;;14.45;96.18;100359.06;6217696;23;20017;-85
2022/10/24 01:00:05;;;;;;;8.13;2.20;;;;;;;14.43;95.92;100359.53;6219875;23;20025;-86
2022/10/24 01:02:32;;;;;;;6.22;2.38;;;;;;;14.45;96.23;100351.03;6220045;23;20101;-84
2022/10/24 01:05:00;;;;;;;6.15;2.28;;;;;;;14.46;95.52;100355.91;6220551;23;20092;-85
2022/10/24 01:07:46;;;;;;;5.90;2.47;;;;;;;14.51;95.24;100360.56;6220148;23;20088;-85
2022/10/24 01:10:41;;;;;;;2.92;2.00;;;;;;;14.52;94.97;100345.25;6220539;23;20084;-85
2022/10/24 01:13:16;;;;;;;7.35;2.28;;;;;;;14.50;94.61;100353.03;6220649;23;20427;-85
2022/10/24 01:16:02;;;;;;;4.57;2.65;;;;;;;14.46;94.38;100349.81;6220041;23;20017;-86
2022/10/24 01:18:32;;;;;;;9.13;2.25;;;;;;;14.46;94.04;100363.22;6193565;23;20021;-85
2022/10/24 01:21:30;;;;;;;7.20;2.08;;;;;;;14.46;94.12;100350.56;6220351;23;20041;-85
2022/10/24 01:24:10;;;;;;;11.02;2.00;;;;;;;14.52;93.58;100353.28;6165263;23;20021;-84
2022/10/24 01:27:10;;;;;;;9.75;1.92;;;;;;;14.51;93.43;100347.19;6192830;23;20018;-85
2022/10/24 01:29:51;;;;;;;5.38;1.70;;;;;;;14.52;92.79;100348.66;6219287;23;20017;-85
2022/10/24 01:32:36;;;;;;;6.20;1.80;;;;;;;14.56;92.40;100335.06;6219930;23;20037;-85
2022/10/24 01:35:06;;;;;;;10.60;2.28;;;;;;;14.58;91.93;100327.28;6220330;23;20044;-85
2022/10/24 01:38:08;;;;;;;2.72;1.92;;;;;;;14.65;91.76;100334.88;6219748;23;20017;-84
2022/10/24 01:40:37;;;;;;;7.97;1.90;;;;;;;14.62;91.17;100333.88;6140200;23;20564;-86
2022/10/24 01:43:12;;;;;;;6.13;1.80;;;;;;;14.61;90.92;100329.00;6220075;23;20017;-86
2022/10/24 01:45:43;;;;;;;6.88;2.42;;;;;;;14.61;90.12;100319.03;6219447;23;20017;-85
2022/10/24 01:48:15;;;;;;;4.07;2.17;;;;;;;14.63;90.23;100318.53;6193278;23;20017;-85
2022/10/24 01:50:45;;;;;;;8.68;1.90;;;;;;;14.63;89.41;100318.53;6193528;23;20116;-84
2022/10/24 01:53:13;;;;;;;4.47;2.28;;;;;;;14.58;89.35;100314.63;6220139;23;20093;-85
2022/10/24 01:55:41;;;;;;;5.20;1.90;;;;;;;14.63;88.85;100326.59;6220075;23;20435;-85
2022/10/24 01:58:08;;;;;;;6.80;2.30;;;;;;;14.61;88.80;100313.66;6219427;23;20104;-85
2022/10/24 02:00:34;;;;;;;7.25;2.58;;;;;;;14.64;88.33;100311.97;6219702;23;20132;-84
2022/10/24 02:03:11;;;;;;;9.23;2.55;;;;;;;14.68;88.18;100304.47;6219749;23;20017;-85
2022/10/24 02:05:43;;;;;;;3.55;2.10;;;;;;;14.70;87.62;100301.31;6219629;23;20051;-85
2022/10/24 02:08:21;;;;;;;9.73;2.42;;;;;;;14.74;87.69;100296.47;6220015;23;20020;-85
2022/10/24 02:10:51;;;;;;;3.80;2.42;;;;;;;14.76;86.87;100294.78;6221252;23;20423;-84
2022/10/24 02:13:25;;;;;;;5.50;2.25;;;;;;;14.78;86.47;100289.66;6220229;23;20104;-85
2022/10/24 02:15:54;;;;;;;7.05;2.42;;;;;;;14.82;86.50;100284.06;6221458;23;20439;-84
2022/10/24 02:18:21;;;;;;;2.63;2.20;;;;;;;14.80;86.20;100292.56;6220960;23;20013;-85
2022/10/24 02:21:02;;;;;;;4.90;2.38;;;;;;;14.84;86.09;100287.00;6221134;23;20052;-84
2022/10/24 02:23:50;;;;;;;8.65;2.40;;;;;;;14.87;86.07;100286.03;6220846;23;20089;-84
2022/10/24 02:26:33;;;;;;;2.63;2.17;;;;;;;14.88;85.28;100290.19;6221030;23;20067;-82
2022/10/24 02:29:05;;;;;;;2.25;2.00;;;;;;;14.91;84.95;100286.56;6220665;23;20020;-84
2022/10/24 02:31:38;;;;;;;9.88;2.30;;;;;;;14.84;85.27;100281.63;6220791;23;20019;-84
2022/10/24 02:34:06;;;;;;;6.70;2.30;;;;;;;14.77;85.02;100285.53;6221300;23;20040;-84
2022/10/24 02:36:34;;;;;;;3.33;2.30;;;;;;;14.75;84.68;100287.22;6220610;23;20099;-84
2022/10/24 02:39:04;;;;;;;8.48;2.20;;;;;;;14.73;84.69;100279.66;6220938;23;20052;-87
2022/10/24 02:41:34;;;;;;;3.58;2.20;;;;;;;14.74;84.65;100288.41;6193068;23;20027;-83
2022/10/24 02:44:02;;;;;;;9.02;2.42;;;;;;;14.72;84.62;100293.53;6221279;23;20045;-83
2022/10/24 02:46:31;;;;;;;5.38;2.00;;;;;;;14.68;84.68;100285.69;6220424;23;20088;-83
2022/10/24 02:49:01;;;;;;;4.53;2.65;;;;;;;14.61;84.85;100288.81;6221198;23;20470;-83
2022/10/24 02:51:30;;;;;;;6.30;2.03;;;;;;;14.58;84.88;100281.75;6220602;23;20096;-84
2022/10/24 02:53:59;;;;;;;4.70;1.92;;;;;;;14.55;84.36;100283.44;6220707;23;20531;-85
2022/10/24 02:56:25;;;;;;;2.85;2.10;;;;;;;14.59;84.34;100283.94;6219741;23;20495;-83
2022/10/24 02:58:52;;;;;;;3.22;1.98;;;;;;;14.59;84.28;100291.97;6220674;23;20017;-82
2022/10/24 03:01:18;;;;;;;11.73;2.10;;;;;;;14.56;84.24;100284.91;6193879;23;20045;-82
2022/10/24 03:03:45;;;;;;;6.05;2.13;;;;;;;14.56;84.70;100286.84;6220748;23;20020;-83
2022/10/24 03:06:14;;;;;;;7.47;1.90;;;;;;;14.52;84.38;100289.72;6220833;23;20019;-84
2022/10/24 03:08:41;;;;;;;5.00;2.00;;;;;;;14.50;84.71;100288.75;6220603;23;20429;-83
2022/10/24 03:11:07;;;;;;;7.57;1.90;;;;;;;14.44;84.60;100287.97;6220247;23;20092;-83
2022/10/24 03:13:34;;;;;;;5.05;1.85;;;;;;;14.40;85.08;100293.50;6220341;23;20080;-84
2022/10/24 03:16:00;;;;;;;4.22;2.05;;;;;;;14.39;84.42;100292.06;6220956;23;20149;-83
2022/10/24 03:18:27;;;;;;;3.00;1.92;;;;;;;14.37;84.42;100288.41;6220733;23;20467;-86
2022/10/24 03:20:53;;;;;;;4.75;1.90;;;;;;;14.39;84.59;100289.38;6220561;23;20092;-84
2022/10/24 03:23:20;;;;;;;5.15;2.05;;;;;;;14.32;84.59;100287.88;6220210;23;20024;-83
2022/10/24 03:25:47;;;;;;;3.35;1.92;;;;;;;14.28;84.75;100294.66;6193742;23;20013;-83
2022/10/24 03:28:13;;;;;;;6.43;2.28;;;;;;;14.30;84.77;100284.22;6220702;23;20088;-83
2022/10/24 03:30:40;;;;;;;4.55;1.90;;;;;;;14.31;84.09;100288.34;6220610;23;20084;-83
2022/10/24 03:33:06;;;;;;;8.20;1.98;;;;;;;14.32;84.16;100295.19;6220663;23;20415;-84
2022/10/24 03:35:34;;;;;;;5.28;1.92;;;;;;;14.30;84.22;100287.63;6220523;23;20080;-85
2022/10/24 03:38:00;;;;;;;3.67;1.88;;;;;;;14.30;83.88;100289.56;6221230;23;20051;-85
2022/10/24 03:40:27;;;;;;;1.95;1.50;;;;;;;14.30;83.70;100294.91;6219881;23;20060;-84
2022/10/24 03:42:53;;;;;;;5.55;1.90;;;;;;;14.25;83.63;100287.56;6220872;23;20060;-85
2022/10/24 03:45:20;;;;;;;8.82;2.08;;;;;;;14.22;84.48;100289.25;6188183;23;20092;-85
2022/10/24 03:47:46;;;;;;;5.57;1.60;;;;;;;14.21;83.84;100292.41;6190233;23;20497;-87
2022/10/24 03:50:12;;;;;;;7.07;1.80;;;;;;;14.24;83.93;100286.84;6190566;23;20022;-84
2022/10/24 03:52:39;;;;;;;7.22;1.67;;;;;;;14.26;82.96;100292.44;6190420;23;20013;-85
2022/10/24 03:55:06;;;;;;;7.03;1.55;;;;;;;14.32;82.35;100295.91;6189999;23;20092;-86
2022/10/24 03:57:32;;;;;;;7.35;1.80;;;;;;;14.40;81.75;100296.19;6190885;23;20045;-86
2022/10/24 03:59:59;;;;;;;2.42;1.75;;;;;;;14.50;81.35;100294.09;6190799;23;20021;-86
2022/10/24 04:02:25;;;;;;;4.88;1.63;;;;;;;14.52;80.50;100289.00;6190556;23;20044;-88
2022/10/24 04:04:52;;;;;;;2.10;1.50;;;;;;;14.54;80.92;100286.59;6190785;23;20084;-86
2022/10/24 04:07:18;;;;;;;2.15;1.38;;;;;;;14.56;80.30;100289.50;6190280;23;20088;-86
2022/10/24 04:09:45;;;;;;;6.65;1.50;;;;;;;14.63;80.49;100291.75;6189894;23;20093;-86
2022/10/24 04:12:11;;;;;;;12.48;1.92;;;;;;;14.60;80.61;100290.75;6190341;23;20400;-89
2022/10/24 04:14:37;;;;;;;3.33;1.40;;;;;;;14.60;80.32;100292.72;6190309;23;20022;-88
2022/10/24 04:17:04;;;;;;;3.03;1.40;;;;;;;14.53;80.37;100277.81;6190530;23;20473;-86
2022/10/24 04:19:31;;;;;;;3.63;1.52;;;;;;;14.52;80.50;100295.09;6190155;23;20755;-86
2022/10/24 04:21:57;;;;;;;2.58;1.00;;;;;;;14.51;80.47;100284.84;6190410;23;20020;-87
2022/10/24 04:24:24;;;;;;;5.10;1.40;;;;;;;14.51;80.31;100282.91;6189362;23;20069;-86
2022/10/24 04:26:50;;;;;;;5.10;1.33;;;;;;;14.53;80.25;100293.16;6190358;23;20033;-89
2022/10/24 04:29:17;;;;;;;7.35;1.23;;;;;;;14.54;80.20;100289.25;6190693;23;20045;-84
2022/10/24 04:31:43;;;;;;;4.97;1.55;;;;;;;14.53;80.99;100282.44;6190722;23;20052;-86
2022/10/24 04:34:10;;;;;;;6.65;1.25;;;;;;;14.53;80.93;100287.78;6191105;23;20097;-91
2022/10/24 04:36:36;;;;;;;5.10;1.25;;;;;;;14.58;80.54;100274.44;6190750;23;20084;-92
2022/10/24 04:39:03;;;;;;;3.13;1.05;;;;;;;14.63;80.15;100279.09;6190348;23;20504;-89
2022/10/24 04:41:30;;;;;;;1.50;1.00;;;;;;;14.66;79.90;100288.13;6191021;23;20399;-87
2022/10/24 04:43:56;;;;;;;2.63;1.02;;;;;;;14.66;80.00;100282.78;6191224;23;20444;-90
2022/10/24 04:46:22;;;;;;;3.47;1.10;;;;;;;14.66;79.69;100277.41;6212248;23;20089;-89
2022/10/24 04:48:49;;;;;;;5.72;1.25;;;;;;;14.71;79.50;100278.66;6221128;23;20021;-84
2022/10/24 04:51:15;;;;;;;3.63;1.40;;;;;;;14.77;79.39;100282.84;6221304;23;20514;-88
2022/10/24 04:53:47;;;;;;;;;;;;;;;14.77;81.32;100272.13;6221481;23;20063;-89
2022/10/24 04:56:14;;;;;;;5.15;1.20;;;;;;;14.76;79.32;100269.91;6221737;23;19926;-90
2022/10/24 04:58:40;;;;;;;3.88;1.10;;;;;;;14.73;79.61;100270.88;6221390;23;20021;-88
2022/10/24 05:01:07;;;;;;;3.03;1.00;;;;;;;14.68;80.09;100275.72;6221456;23;20021;-92
2022/10/24 05:03:33;;;;;;;7.07;1.45;;;;;;;14.65;79.90;100271.31;6221792;23;20044;-93
2022/10/24 05:06:00;;;;;;;3.92;1.00;;;;;;;14.67;80.16;100274.25;6221111;23;20017;-92
2022/10/24 05:08:27;;;;;;;6.13;1.20;;;;;;;14.74;79.83;100269.66;6220585;23;20518;-85
2022/10/24 05:10:53;;;;;;;1.85;1.08;;;;;;;14.78;79.66;100278.94;6221494;23;20017;-92
2022/10/24 05:13:19;;;;;;;5.97;1.48;;;;;;;14.76;79.82;100276.00;6221434;23;20450;-89
2022/10/24 05:15:46;;;;;;;3.65;1.15;;;;;;;14.77;79.83;100271.38;6221320;23;20144;-89
2022/10/24 05:18:12;;;;;;;8.20;1.17;;;;;;;14.72;80.22;100278.19;6221441;23;20067;-90
2022/10/24 05:20:39;;;;;;;3.08;1.25;;;;;;;14.69;80.31;100287.19;6220402;23;20016;-85
2022/10/24 05:23:08;;;;;;;8.18;1.02;;;;;;;14.74;80.05;100272.34;6220682;23;20443;-86
2022/10/24 05:25:34;;;;;;;3.55;1.40;;;;;;;14.80;79.54;100276.50;6220716;23;20350;-86
2022/10/24 05:28:00;;;;;;;4.93;1.20;;;;;;;14.75;80.13;100284.53;6220574;23;20510;-86
2022/10/24 05:30:27;;;;;;;8.15;1.15;;;;;;;14.72;79.96;100283.53;6220506;23;20075;-85
2022/10/24 05:32:53;;;;;;;6.30;1.90;;;;;;;14.70;80.60;100277.19;6220524;23;20138;-85
2022/10/24 05:35:20;;;;;;;7.45;1.30;;;;;;;14.78;79.56;100280.91;6220170;23;20781;-85
2022/10/24 05:37:46;;;;;;;4.70;1.40;;;;;;;14.80;79.27;100271.13;6220666;23;20087;-86
2022/10/24 05:40:13;;;;;;;6.03;1.23;;;;;;;14.81;79.50;100277.22;6219996;23;20099;-85
2022/10/24 05:42:39;;;;;;;4.72;1.10;;;;;;;14.86;79.44;100279.22;6222656;23;20017;-86
2022/10/24 05:45:08;;;;;;;7.80;1.25;;;;;;;14.88;79.34;100274.84;6222109;23;20013;-85
2022/10/24 05:47:35;;;;;;;6.18;1.10;;;;;;;14.88;79.17;100284.81;6223051;23;20088;-85
2022/10/24 05:50:02;;;;;;;4.35;1.40;;;;;;;14.90;79.09;100266.31;6221969;23;20018;-86
2022/10/24 05:52:28;;;;;;;8.18;1.45;;;;;;;14.88;78.92;100274.09;6222125;23;20499;-85
2022/10/24 05:54:55;;;;;;;5.10;1.63;;;;;;;14.94;78.76;100272.19;6221598;23;20123;-85
2022/10/24 05:57:33;;;;;;;9.50;1.65;;;;;;;14.96;79.50;100280.50;6221837;23;20072;-85
2022/10/24 05:59:59;;;;;;;4.90;1.45;;;;;;;14.96;78.78;100275.84;6194915;23;20483;-85
2022/10/24 06:02:26;;;;;;;6.05;1.17;;;;;;;14.96;78.38;100275.84;6221755;23;20384;-84
2022/10/24 06:04:54;;;;;;;6.40;1.33;;;;;;;14.95;78.55;100266.34;6221253;23;20431;-86
2022/10/24 06:07:21;;;;;;;6.90;1.40;;;;;;;14.97;78.39;100273.91;6221719;23;20502;-88
2022/10/24 06:09:47;;;;;;;7.43;1.40;;;;;;;14.92;78.38;100272.66;6195233;23;20103;-81
2022/10/24 06:12:14;;;;;;;6.25;1.55;;;;;;;14.90;78.69;100285.81;6221706;23;20037;-83
2022/10/24 06:14:40;;;;;;;5.75;1.23;;;;;;;14.83;78.73;100277.50;6221748;23;20024;-79
2022/10/24 06:17:10;;;;;;;3.20;1.10;;;;;;;14.80;79.24;100279.19;6221583;23;20084;-82
2022/10/24 06:19:38;;;;;;;3.17;1.17;;;;;;;14.76;79.51;100281.38;6221327;23;20107;-87
2022/10/24 06:22:06;;;;;;;4.03;1.00;;;;;;;14.79;79.60;100285.03;6221662;23;20017;-88
2022/10/24 06:24:34;;;;;;;4.97;1.30;;;;;;;14.83;79.37;100290.88;6222199;23;20053;-88
2022/10/24 06:27:01;;;;;;;4.70;1.10;;;;;;;14.84;79.14;100285.06;6221625;23;20025;-85
2022/10/24 06:29:28;;;;;;;3.63;1.10;;;;;;;14.89;78.93;100295.06;6221847;23;20041;-88
2022/10/24 06:31:54;;;;;;;9.07;1.30;;;;;;;14.90;79.08;100296.53;6221795;23;20419;-88
2022/10/24 06:34:20;;;;;;;3.22;1.63;;;;;;;14.91;79.57;100303.38;6221825;23;20013;-86
2022/10/24 06:36:47;;;;;;;2.85;1.10;;;;;;;14.88;79.79;100303.59;6229748;23;20036;-91
2022/10/24 06:39:13;;;;;;;4.40;1.70;;;;;;;14.95;79.70;100306.56;6228648;23;20020;-86
2022/10/24 06:41:40;;;;;;;6.32;2.10;;;;;;;14.99;79.01;100300.97;6222335;23;20092;-87
2022/10/24 06:44:12;;;;;;;6.20;1.45;;;;;;;15.00;79.15;100299.75;6194859;23;20044;-89
2022/10/24 06:46:39;;;;;;;7.53;1.10;;;;;;;15.00;78.83;100305.84;6222065;23;20169;-89
2022/10/24 06:49:06;;;;;;;4.55;1.50;;;;;;;15.01;78.81;100306.59;6221688;23;20068;-88
2022/10/24 06:51:32;;;;;;;6.72;1.40;;;;;;;15.01;79.12;100306.59;6195288;23;20096;-88
2022/10/24 06:53:59;;;;;;;5.55;1.67;;;;;;;15.01;78.96;100307.31;6221788;23;20096;-88
2022/10/24 06:56:25;;;;;;;4.75;1.17;;;;;;;15.05;78.68;100292.97;6221977;23;20022;-85
2022/10/24 06:58:52;;;;;;;5.50;1.40;;;;;;;15.08;78.49;100310.75;6221942;23;20757;-87
2022/10/24 07:01:21;;;;;;;7.45;1.30;;;;;;;15.04;78.82;100320.97;6195527;23;20021;-86
2022/10/24 07:03:48;;;;;;;5.13;1.35;;;;;;;15.02;78.74;100322.19;6195286;23;20017;-90
2022/10/24 07:06:23;;;;;;;8.15;1.90;;;;;;;15.02;79.18;100326.81;6221890;23;20447;-86
2022/10/24 07:08:55;;;;;;;6.30;1.58;;;;;;;15.02;79.09;100326.81;6221460;23;20100;-87
2022/10/24 07:11:22;;;;;;;7.35;1.77;;;;;;;15.02;79.14;100337.53;6221655;23;20041;-88
2022/10/24 07:13:49;;;;;;;2.63;1.13;;;;;;;15.05;78.93;100338.53;6221540;23;20084;-87
2022/10/24 07:16:16;;;;;;;4.30;0.85;;;;;;;15.04;78.94;100351.19;6223433;23;20462;-87
2022/10/24 07:18:43;;;;;;;8.05;1.63;;;;;;;15.02;79.79;100354.34;6196045;23;20450;-91
2022/10/24 07:21:14;;;;;;;3.50;1.10;;;;;;;15.05;79.46;100359.97;6223436;23;20051;-88
2022/10/24 07:23:40;;;;;;;7.90;1.67;;;;;;;15.11;78.80;100361.47;6223907;23;20044;-90
2022/10/24 07:26:10;;;;;;;4.90;1.20;;;;;;;15.17;78.78;100366.88;6223975;23;20050;-91
2022/10/24 07:28:38;;;;;;;7.05;1.40;;;;;;;15.25;78.65;100367.88;6225906;23;20044;-87
2022/10/24 07:31:05;;;;;;;5.53;1.30;;;;;;;15.35;78.57;100369.88;6222132;23;20037;-85
2022/10/24 07:33:32;;;;;;;7.78;1.73;;;;;;;15.45;78.35;100370.41;6221691;23;20017;-88
2022/10/24 07:35:59;;;;;;;5.90;1.25;;;;;;;15.49;77.92;100375.53;6222647;23;20096;-90
2022/10/24 07:38:25;;;;;;;9.98;1.52;;;;;;;15.54;77.90;100369.47;6197807;23;20017;-92
2022/10/24 07:40:52;;;;;;;6.10;1.80;;;;;;;15.51;78.16;100378.47;6228666;23;20454;-92
2022/10/24 07:43:18;;;;;;;8.75;1.70;;;;;;;15.48;77.34;100384.81;6200012;23;20061;-89
2022/10/24 07:45:45;;;;;;;9.35;1.67;;;;;;;15.48;78.23;100377.50;6225234;23;20013;-91
2022/10/24 07:48:17;;;;;;;11.82;1.48;;;;;;;15.47;78.29;100386.75;6225668;23;20049;-85
2022/10/24 07:50:45;;;;;;;9.95;1.80;;;;;;;15.48;78.72;100384.81;6221951;23;20452;-87
2022/10/24 07:53:13;;;;;;;13.68;1.30;;;;;;;15.47;78.45;100386.75;6221721;23;20014;-85
2022/10/24 07:55:41;;;;;;;9.40;2.22;;;;;;;15.48;78.68;100385.53;6221290;23;20047;-84
2022/10/24 07:58:08;;;;;;;4.47;1.30;;;;;;;15.54;78.34;100397.03;6221815;23;20486;-87
2022/10/24 08:00:35;;;;;;;4.07;1.30;;;;;;;15.58;78.10;100400.25;6195303;23;20088;-89
2022/10/24 08:03:04;;;;;;;5.47;1.23;;;;;;;15.59;78.81;100401.00;6222573;23;20072;-87
2022/10/24 08:05:30;;;;;;;7.55;1.30;;;;;;;15.54;79.61;100397.03;6221727;23;20092;-80
2022/10/24 08:07:57;;;;;;;6.65;1.77;;;;;;;15.48;78.77;100401.63;6221753;23;20045;-84
2022/10/24 08:10:43;;;;;;;8.25;1.40;;;;;;;15.46;80.12;100403.34;6223707;23;20076;-91
2022/10/24 08:13:10;;;;;;;6.13;1.40;;;;;;;15.43;79.62;100415.75;6223695;23;20055;-91
2022/10/24 08:15:39;;;;;;;8.43;1.30;;;;;;;15.46;78.77;100414.78;6222874;23;20051;-88
2022/10/24 08:18:05;;;;;;;8.10;1.40;;;;;;;15.49;78.50;100413.09;6221289;23;20477;-85
2022/10/24 08:20:32;;;;;;;6.28;1.50;;;;;;;15.53;78.75;100421.66;6222833;23;20021;-88
2022/10/24 08:22:58;;;;;;;6.13;1.33;;;;;;;15.50;78.02;100414.56;6223138;23;20474;-88
2022/10/24 08:25:25;;;;;;;4.50;1.10;;;;;;;15.52;78.85;100412.13;6222622;23;20092;-88
2022/10/24 08:27:51;;;;;;;5.15;1.30;;;;;;;15.52;78.87;100420.94;6222597;23;20144;-87
2022/10/24 08:30:19;;;;;;;3.80;1.08;;;;;;;15.51;78.95;100419.44;6221994;23;20036;-87
2022/10/24 08:32:45;;;;;;;9.30;1.40;;;;;;;15.52;78.83;100426.28;6220990;23;20044;-88
2022/10/24 08:35:18;;;;;;;6.97;1.60;;;;;;;15.56;78.76;100437.56;6194361;23;20374;-89
2022/10/24 08:37:44;;;;;;;12.43;1.83;;;;;;;15.58;77.86;100434.41;6221627;23;20060;-85
2022/10/24 08:40:16;;;;;;;7.32;1.48;;;;;;;15.58;78.52;100437.06;6221192;23;20399;-86
2022/10/24 08:42:43;;;;;;;11.07;1.45;;;;;;;15.63;79.09;100447.06;6222595;23;20024;-85
2022/10/24 08:45:25;;;;;;;9.00;1.45;;;;;;;15.68;78.50;100449.06;6196845;23;20021;-85
2022/10/24 08:47:59;;;;;;;;;;;;;;;15.66;79.86;100433.44;6195619;23;20079;-86
2022/10/24 08:50:30;;;;;;;8.00;1.45;;;;;;;15.66;78.15;100438.06;6221604;23;19955;-88
2022/10/24 08:53:04;;;;;;;4.25;1.58;;;;;;;15.66;78.32;100454.16;6222111;23;20045;-86
2022/10/24 08:55:37;;;;;;;4.65;1.38;;;;;;;15.67;78.07;100450.28;6221869;23;20399;-84
2022/10/24 08:58:27;;;;;;;10.20;1.50;;;;;;;15.76;77.58;100446.66;6200220;23;20358;-92
2022/10/24 09:00:56;;;;;;;6.63;1.17;;;;;;;15.84;77.19;100450.34;6222879;23;20049;-89
2022/10/24 09:03:25;;;;;;;4.28;1.25;;;;;;;15.84;76.75;100453.78;6222977;23;20328;-92
2022/10/24 09:06:22;;;;;;;8.00;1.23;;;;;;;15.90;77.11;100441.09;6223846;23;20021;-89
2022/10/24 09:08:52;;;;;;;6.53;1.02;;;;;;;15.88;77.33;100456.22;6196684;23;21134;-88
2022/10/24 09:11:54;;;;;;;3.47;1.30;;;;;;;15.80;77.08;100464.00;6194080;23;20399;-83
2022/10/24 09:14:25;;;;;;;6.75;1.35;;;;;;;15.73;77.02;100456.41;6159491;23;20051;-83
2022/10/24 09:16:56;;;;;;;3.63;1.33;;;;;;;15.72;76.20;100470.28;6220716;23;20092;-83
2022/10/24 09:19:24;;;;;;;;;;;;;;;15.72;78.29;100483.72;6195211;23;20335;-87
2022/10/24 09:21:53;;;;;;;4.50;1.00;;;;;;;15.72;76.52;100472.97;6221062;23;20007;-87
2022/10/24 09:24:30;;;;;;;7.00;1.40;;;;;;;15.75;76.47;100485.44;6220984;23;20103;-89
2022/10/24 09:26:59;;;;;;;11.57;1.80;;;;;;;15.82;76.06;100475.00;6222808;23;20108;-93
2022/10/24 09:29:30;;;;;;;2.97;1.25;;;;;;;15.88;76.83;100489.16;6224257;23;20048;-95
2022/10/24 09:31:57;;;;;;;6.30;2.10;;;;;;;15.81;79.00;100500.34;6229239;23;20013;-92
2022/10/24 09:34:24;;;;;;;4.90;1.23;;;;;;;15.73;79.47;100506.66;6230447;23;20035;-93
2022/10/24 09:36:50;;;;;;;4.63;1.40;;;;;;;15.69;79.99;100498.81;6228433;23;19997;-94
2022/10/24 09:39:30;;;;;;;2.67;1.23;;;;;;;15.66;78.76;100507.84;6202103;23;20056;-88
2022/10/24 09:41:58;;;;;;;6.65;1.70;;;;;;;15.61;80.92;100508.53;6227680;23;20412;-89
2022/10/24 09:44:32;;;;;;;4.53;1.42;;;;;;;15.49;80.89;100518.44;6203208;23;20017;-94
2022/10/24 09:47:00;;;;;;;5.82;1.52;;;;;;;15.37;81.29;100535.69;6232953;23;20119;-92
2022/10/24 09:49:45;;;;;;;7.97;2.05;;;;;;;15.34;81.65;100532.00;6226045;23;20040;-91
2022/10/24 09:52:20;;;;;;;6.40;1.33;;;;;;;15.32;82.58;100541.72;6195420;23;20061;-91
2022/10/24 09:55:23;;;;;;;3.30;1.30;;;;;;;15.30;83.47;100531.47;6195819;23;20025;-85
2022/10/24 09:58:02;;;;;;;4.32;1.40;;;;;;;15.29;83.50;100556.09;6219840;23;20017;-85
2022/10/24 10:00:34;;;;;;;3.40;1.17;;;;;;;15.23;84.29;100547.25;6192508;23;20013;-85
2022/10/24 10:03:03;;;;;;;3.67;1.60;;;;;;;15.15;85.01;100554.28;6193127;23;20051;-87
2022/10/24 10:05:47;;;;;;;4.78;1.27;;;;;;;15.11;86.08;100557.19;6219902;23;20101;-82
2022/10/24 10:08:22;;;;;;;6.38;1.50;;;;;;;15.30;85.45;100560.97;6221835;23;20010;-91
2022/10/24 10:11:06;;;;;;;5.22;1.55;;;;;;;15.45;86.51;100555.50;6196654;23;20084;-90
2022/10/24 10:13:41;;;;;;;9.68;1.95;;;;;;;15.55;84.17;100564.84;6222803;23;20017;-88
2022/10/24 10:16:20;;;;;;;3.95;1.55;;;;;;;15.60;83.70;100568.78;6204170;23;20886;-90
2022/10/24 10:18:47;;;;;;;3.00;1.40;;;;;;;15.61;83.35;100579.03;6196383;23;20075;-87
2022/10/24 10:21:17;;;;;;;5.25;1.25;;;;;;;15.65;83.34;100578.81;6221821;23;20750;-91
2022/10/24 10:23:49;;;;;;;7.55;1.55;;;;;;;15.69;81.91;100582.00;6220779;23;20037;-89
2022/10/24 10:26:26;;;;;;;8.77;3.90;;;;;;;15.65;82.77;100578.81;6221586;23;20036;-86
2022/10/24 10:28:52;;;;;;;10.23;1.70;;;;;;;15.68;81.24;100580.53;6221350;23;20466;-92
2022/10/24 10:31:23;;;;;;;5.70;1.10;;;;;;;15.78;80.56;100583.78;6221856;23;20125;-88
2022/10/24 10:34:01;;;;;;;7.88;1.58;;;;;;;15.82;80.79;100582.34;6225341;23;20017;-92
2022/10/24 10:36:38;;;;;;;2.97;1.35;;;;;;;15.81;80.70;100596.97;6223382;23;20029;-91
2022/10/24 10:39:23;;;;;;;2.92;1.15;;;;;;;15.89;80.74;100602.66;6226065;23;20025;-90
2022/10/24 10:42:11;;;;;;;5.53;1.70;;;;;;;15.97;79.39;100595.63;6226268;23;20024;-91
2022/10/24 10:45:04;;;;;;;6.55;1.35;;;;;;;16.04;79.94;100607.84;6201958;23;20013;-89
2022/10/24 10:47:42;;;;;;;4.55;1.65;;;;;;;16.05;79.84;100615.41;6223155;23;20096;-92
2022/10/24 10:50:49;;;;;;;3.92;1.40;;;;;;;16.15;78.86;100614.00;6222114;23;20028;-92
2022/10/24 10:53:38;;;;;;;2.08;1.30;;;;;;;16.04;78.17;100613.94;6221641;23;20425;-88
2022/10/24 10:56:16;;;;;;;3.22;1.30;;;;;;;16.02;78.51;100629.78;6222095;23;20092;-88
2022/10/24 10:59:01;;;;;;;5.00;1.10;;;;;;;15.94;78.19;100632.22;6222934;23;20618;-90
2022/10/24 11:01:50;;;;;;;4.93;1.58;;;;;;;15.87;78.10;100635.34;6222380;23;20025;-91
2022/10/24 11:04:22;;;;;;;4.40;1.45;;;;;;;15.83;78.63;100634.06;6224158;23;20017;-93
2022/10/24 11:07:19;;;;;;;9.65;2.10;;;;;;;15.87;79.03;100639.97;6223614;23;20013;-92
2022/10/24 11:09:52;;;;;;;4.00;1.35;;;;;;;15.83;78.73;100645.56;6221206;23;20029;-89
2022/10/24 11:12:36;;;;;;;2.13;1.00;;;;;;;15.80;78.56;100646.50;6198885;23;20061;-92
2022/10/24 11:15:25;;;;;;;2.45;1.38;;;;;;;15.83;79.33;100642.13;6228378;23;20052;-90
2022/10/24 11:18:03;;;;;;;4.63;1.00;;;;;;;15.88;77.79;100638.75;6228050;23;20020;-92
2022/10/24 11:20:36;;;;;;;10.60;1.50;;;;;;;15.95;77.76;100655.16;6195568;23;20088;-89
2022/10/24 11:23:08;;;;;;;4.05;1.25;;;;;;;16.02;77.27;100653.97;6222297;23;20060;-90
2022/10/24 11:25:52;;;;;;;8.30;1.20;;;;;;;16.10;77.46;100649.63;6223107;23;20522;-88
2022/10/24 11:28:28;;;;;;;5.97;1.23;;;;;;;16.22;76.94;100659.22;6224199;23;20443;-91
2022/10/24 11:31:25;;;;;;;4.28;1.38;;;;;;;16.23;76.40;100658.00;6241912;23;20068;-90
2022/10/24 11:34:31;;;;;;;4.50;1.38;;;;;;;16.24;77.08;100656.78;6239868;23;20024;-90
2022/10/24 11:37:13;;;;;;;2.42;1.23;;;;;;;16.18;77.72;100652.59;6208916;23;20021;-87
2022/10/24 11:39:54;;;;;;;4.72;2.55;;;;;;;16.02;78.56;100668.13;6226007;23;20048;-88
2022/10/24 11:42:33;;;;;;;4.82;1.98;;;;;;;15.77;82.39;100682.34;6223135;23;20044;-84
2022/10/24 11:45:14;;;;;;;3.53;1.38;;;;;;;15.56;84.76;100688.97;6220920;23;20060;-83